Time;durP1;ratioP1;P1;durP2;ratioP2;P2;SDS_P1;SDS_P2;PMS_P1;PMS_P2;Temp;Humidity;BMP_temperature;BMP_pressure;BME280_temperature;BME280_humidity;BME280_pressure;Samples;Min_cycle;Max_cycle;Signal;HPM_P1;HPM_P2
2022/01/25 00:28:39;;;;;;;3.55;1.23;;;0.70;99.90;;;;;;5073243;28;20033;-81
2022/01/25 00:31:16;;;;;;;7.57;1.27;;;0.70;99.90;;;;;;5073050;28;20024;-79
2022/01/25 00:33:53;;;;;;;2.55;1.13;;;0.70;99.90;;;;;;5072692;28;20491;-80
2022/01/25 00:36:22;;;;;;;3.38;1.35;;;0.70;99.90;;;;;;5072731;28;20044;-80
2022/01/25 00:38:49;;;;;;;4.55;1.17;;;0.70;99.90;;;;;;5072405;28;20135;-81
2022/01/25 00:41:15;;;;;;;2.70;1.02;;;0.70;99.90;;;;;;5072778;28;20024;-80
2022/01/25 00:43:42;;;;;;;3.88;1.13;;;0.70;99.90;;;;;;5072750;28;20024;-81
2022/01/25 00:46:10;;;;;;;3.00;1.08;;;0.70;99.90;;;;;;5072458;28;20044;-81
2022/01/25 00:53:55;;;;;;;2.35;0.95;;;0.60;99.90;;;;;;5072592;28;20032;-80
2022/01/25 00:56:23;;;;;;;2.45;1.27;;;0.60;99.90;;;;;;5072278;28;20522;-78
2022/01/25 00:58:49;;;;;;;3.05;1.42;;;0.60;99.90;;;;;;5072136;28;20071;-78
2022/01/25 01:01:17;;;;;;;4.05;1.30;;;0.60;99.90;;;;;;5072635;28;20024;-78
2022/01/25 01:03:43;;;;;;;5.18;1.20;;;0.60;99.90;;;;;;5072370;28;20032;-78
2022/01/25 01:06:08;;;;;;;3.75;1.35;;;0.60;99.90;;;;;;5072203;28;20028;-77
2022/01/25 01:08:34;;;;;;;5.85;1.10;;;0.60;99.90;;;;;;5072183;28;20110;-77
2022/01/25 01:11:03;;;;;;;5.75;1.17;;;0.60;99.90;;;;;;5072335;28;20052;-78
2022/01/25 01:30:56;;;;;;;5.00;1.55;;;0.30;99.90;;;;;;5071917;28;20024;-80
2022/01/25 01:38:07;;;;;;;3.60;0.80;;;0.40;99.90;;;;;;5071483;28;20519;-80
2022/01/25 01:41:06;;;;;;;6.05;1.08;;;0.30;99.90;;;;;;5071988;28;20020;-78
2022/01/25 01:43:36;;;;;;;4.03;1.10;;;0.30;99.90;;;;;;5071922;28;20020;-80
2022/01/25 01:51:43;;;;;;;6.18;1.60;;;0.20;99.90;;;;;;5026882;28;20048;-80
2022/01/25 01:54:14;;;;;;;3.92;1.17;;;0.20;99.90;;;;;;5071962;28;20028;-80
2022/01/25 01:56:41;;;;;;;3.28;1.00;;;0.20;99.90;;;;;;5071877;28;20075;-78
2022/01/25 01:59:10;;;;;;;4.05;1.30;;;0.20;99.90;;;;;;5071849;28;20051;-75
2022/01/25 02:01:39;;;;;;;5.38;1.10;;;0.20;99.90;;;;;;5071878;28;20028;-75
2022/01/25 02:04:06;;;;;;;2.95;1.30;;;0.20;99.90;;;;;;5071427;28;20023;-75
2022/01/25 02:06:33;;;;;;;6.18;1.30;;;0.10;99.90;;;;;;5071548;28;20028;-75
2022/01/25 02:08:59;;;;;;;5.57;1.38;;;0.10;99.90;;;;;;5071417;28;20372;-75
2022/01/25 02:11:25;;;;;;;3.72;1.17;;;0.10;99.90;;;;;;5071648;28;20092;-75
2022/01/25 02:13:52;;;;;;;6.25;1.27;;;0.10;99.90;;;;;;5071356;28;20034;-77
2022/01/25 02:17:01;;;;;;;4.40;1.00;;;0.10;99.90;;;;;;5071428;28;20035;-76
2022/01/25 02:56:05;;;;;;;3.55;1.13;;;-0.20;99.90;;;;;;5074133;28;20147;-75
2022/01/25 02:58:31;;;;;;;6.28;1.27;;;-0.20;99.90;;;;;;5074656;28;20025;-76
2022/01/25 03:00:56;;;;;;;2.65;1.15;;;-0.20;99.90;;;;;;5074980;28;20144;-75
2022/01/25 03:37:10;;;;;;;2.83;1.20;;;-0.30;99.70;;;;;;5845733;22;20041;-76
2022/01/25 03:39:35;;;;;;;8.00;1.55;;;-0.30;99.90;;;;;;5054040;28;20040;-75
2022/01/25 03:42:06;;;;;;;5.35;1.40;;;-0.30;99.90;;;;;;5053851;28;20450;-75
2022/01/25 03:44:32;;;;;;;2.78;1.02;;;-0.30;99.90;;;;;;5054253;28;20028;-76
2022/01/25 03:47:04;;;;;;;1.77;1.10;;;-0.30;99.90;;;;;;5051243;28;20471;-76
2022/01/25 03:49:52;;;;;;;5.57;1.20;;;-0.30;99.40;;;;;;5051456;28;20108;-76
2022/01/25 03:52:27;;;;;;;2.70;1.00;;;-0.30;99.70;;;;;;5052634;28;20021;-76
2022/01/25 03:54:54;;;;;;;8.77;1.30;;;-0.30;99.90;;;;;;5053975;28;20029;-76
2022/01/25 03:57:20;;;;;;;5.40;1.40;;;-0.20;99.60;;;;;;5053329;28;20041;-77
2022/01/25 03:59:46;;;;;;;5.63;1.27;;;-0.20;99.00;;;;;;5053672;28;20017;-77
2022/01/25 04:02:12;;;;;;;7.85;1.30;;;-0.20;98.60;;;;;;5053274;28;20475;-76
2022/01/25 04:04:38;;;;;;;6.53;1.25;;;-0.30;98.30;;;;;;5053523;28;20105;-76
2022/01/25 04:07:09;;;;;;;5.60;1.33;;;-0.30;98.60;;;;;;5053196;28;20078;-76
2022/01/25 04:09:36;;;;;;;4.57;1.15;;;-0.30;98.90;;;;;;5053462;28;20075;-76
2022/01/25 04:12:03;;;;;;;2.95;1.10;;;-0.30;99.00;;;;;;5053372;28;20036;-76
2022/01/25 04:14:29;;;;;;;5.60;1.15;;;-0.40;99.10;;;;;;5053486;28;20108;-76
2022/01/25 04:27:26;;;;;;;5.38;1.30;;;-0.50;99.40;;;;;;5053268;28;20075;-76
2022/01/25 04:29:52;;;;;;;4.38;1.10;;;-0.50;99.40;;;;;;5053361;28;20024;-76
2022/01/25 04:32:19;;;;;;;6.90;1.48;;;-0.50;99.30;;;;;;5052936;28;20032;-76
2022/01/25 04:35:10;;;;;;;4.82;1.40;;;-0.60;99.20;;;;;;5053337;28;20467;-76
2022/01/25 04:56:25;;;;;;;5.07;1.08;;;-0.80;99.30;;;;;;5052592;28;20033;-77
2022/01/25 04:59:39;;;;;;;3.47;1.27;;;-0.80;99.20;;;;;;5052446;28;20021;-79
2022/01/25 05:01:41;;;;;;;6.70;1.45;;;-0.80;99.30;;;;;;5046674;28;20044;-79
2022/01/25 05:04:11;;;;;;;5.90;1.48;;;-0.80;99.10;;;;;;5051744;28;20361;-78
2022/01/25 05:06:38;;;;;;;5.05;1.20;;;-0.80;99.20;;;;;;5052647;28;20057;-78
2022/01/25 05:09:12;;;;;;;9.23;1.70;;;-0.90;99.20;;;;;;5052005;28;20017;-79
2022/01/25 05:11:44;;;;;;;3.03;1.23;;;-0.90;99.20;;;;;;5052575;28;20373;-80
2022/01/25 05:17:00;;;;;;;4.63;1.17;;;-0.90;99.50;;;;;;5051992;28;20500;-79
2022/01/25 05:22:06;;;;;;;4.38;1.30;;;-0.90;99.50;;;;;;5052389;28;20028;-81
2022/01/25 05:24:42;;;;;;;3.75;1.25;;;-0.90;99.50;;;;;;5052146;28;20056;-79
2022/01/25 05:27:09;;;;;;;5.13;2.47;;;-0.90;99.50;;;;;;5052081;28;20032;-81
2022/01/25 05:29:35;;;;;;;4.50;1.30;;;-0.90;99.90;;;;;;5051913;28;20029;-83
2022/01/25 05:32:01;;;;;;;1.92;1.08;;;-0.90;99.90;;;;;;5051800;28;20036;-75
2022/01/25 05:34:27;;;;;;;6.10;1.90;;;-0.90;99.60;;;;;;5051444;28;20029;-77
2022/01/25 05:36:53;;;;;;;4.88;1.25;;;-0.90;99.60;;;;;;5051558;28;20049;-80
2022/01/25 05:39:25;;;;;;;1.73;0.88;;;-1.00;99.60;;;;;;5051448;28;20025;-81
2022/01/25 05:42:15;;;;;;;3.20;1.23;;;1.10;99.90;;;;;;5051541;28;20065;-70
2022/01/25 05:44:55;;;;;;;3.63;1.40;;;2.20;99.90;;;;;;5031577;28;20076;-70
2022/01/25 05:47:29;;;;;;;5.10;1.13;;;1.40;95.80;;;;;;5031277;28;20026;-71
2022/01/25 05:49:56;;;;;;;3.78;1.00;;;0.60;95.30;;;;;;5048027;28;20025;-72
2022/01/25 05:52:22;;;;;;;4.75;1.45;;;0.20;96.40;;;;;;5050831;28;20021;-72
2022/01/25 05:54:48;;;;;;;3.17;1.08;;;-0.10;96.90;;;;;;5049179;28;20023;-71
2022/01/25 05:57:14;;;;;;;3.90;1.10;;;-0.40;98.10;;;;;;5043329;28;20090;-73
2022/01/25 05:59:40;;;;;;;4.78;1.17;;;-0.50;98.40;;;;;;5050595;28;20032;-73
2022/01/25 06:02:06;;;;;;;4.90;1.25;;;-0.50;98.90;;;;;;5049119;28;20021;-80
2022/01/25 06:04:32;;;;;;;3.78;1.13;;;-0.60;98.90;;;;;;5050831;28;20070;-79
2022/01/25 06:06:58;;;;;;;2.53;1.40;;;-0.70;98.50;;;;;;5050506;28;20029;-80
2022/01/25 06:09:26;;;;;;;3.88;1.40;;;-0.80;98.80;;;;;;5050387;28;20032;-80
2022/01/25 06:11:53;;;;;;;6.63;1.27;;;-0.80;99.00;;;;;;5050636;28;20116;-80
2022/01/25 06:14:20;;;;;;;4.38;1.13;;;-0.90;99.40;;;;;;5050612;28;20017;-80
2022/01/25 06:16:45;;;;;;;2.72;1.02;;;-0.90;99.60;;;;;;5055001;28;20037;-78
2022/01/25 06:19:11;;;;;;;2.85;1.23;;;-0.90;99.70;;;;;;5054814;28;20086;-79
2022/01/25 06:21:37;;;;;;;2.67;1.30;;;-1.00;99.60;;;;;;5054511;28;20025;-79
2022/01/25 06:24:03;;;;;;;5.00;1.20;;;-0.90;99.70;;;;;;5054882;28;20123;-74
2022/01/25 06:26:29;;;;;;;3.08;1.10;;;-0.90;99.90;;;;;;5055294;28;20017;-73
2022/01/25 06:28:55;;;;;;;5.22;1.08;;;-1.00;99.60;;;;;;5054055;28;20107;-75
2022/01/25 06:31:21;;;;;;;2.03;0.93;;;-0.90;99.90;;;;;;5055017;28;20021;-75
2022/01/25 06:33:47;;;;;;;3.00;1.27;;;-0.70;99.90;;;;;;5055309;28;20033;-74
2022/01/25 06:36:14;;;;;;;5.47;1.08;;;-0.80;99.90;;;;;;5054791;28;20029;-75
2022/01/25 06:38:40;;;;;;;4.20;1.13;;;-0.80;99.90;;;;;;5054794;28;20048;-74
2022/01/25 06:41:06;;;;;;;3.00;1.20;;;-0.90;99.90;;;;;;5054931;28;20028;-74
2022/01/25 06:43:31;;;;;;;5.82;1.30;;;-0.90;99.90;;;;;;5054676;28;20029;-77
2022/01/25 06:46:01;;;;;;;3.92;1.05;;;-0.90;99.90;;;;;;5054780;28;20100;-80
2022/01/25 06:48:27;;;;;;;1.30;1.20;;;-0.90;99.90;;;;;;5054646;28;20403;-78
2022/01/25 06:50:54;;;;;;;1.55;1.00;;;-0.90;99.90;;;;;;5054839;28;20487;-82
2022/01/25 06:53:20;;;;;;;6.35;1.30;;;-0.90;99.90;;;;;;5054483;28;20040;-81
2022/01/25 06:55:46;;;;;;;3.80;1.23;;;-0.90;99.90;;;;;;5054711;28;20021;-81
2022/01/25 06:58:11;;;;;;;1.98;1.00;;;-1.00;99.90;;;;;;5054807;28;20024;-78
2022/01/25 07:00:38;;;;;;;2.50;1.00;;;-1.00;99.90;;;;;;5054652;28;20506;-78
2022/01/25 07:03:04;;;;;;;2.30;1.05;;;-1.00;99.90;;;;;;5054852;28;20037;-77
2022/01/25 07:05:30;;;;;;;3.53;1.15;;;-1.00;99.90;;;;;;5054547;28;20017;-73
2022/01/25 07:07:56;;;;;;;2.72;1.15;;;-1.00;99.90;;;;;;5054423;28;20021;-79
2022/01/25 07:10:22;;;;;;;4.70;1.17;;;-1.00;99.90;;;;;;5054750;28;20033;-78
2022/01/25 07:12:48;;;;;;;1.80;1.63;;;-0.20;99.90;;;;;;5054678;28;20021;-79
2022/01/25 07:15:14;;;;;;;3.78;1.00;;;0.60;99.90;;;;;;5054140;28;20033;-82
2022/01/25 07:17:41;;;;;;;5.53;1.27;;;1.30;99.90;;;;;;5054289;28;20036;-80
2022/01/25 07:20:08;;;;;;;2.00;1.00;;;0.90;99.90;;;;;;5054275;28;20029;-81
2022/01/25 07:22:35;;;;;;;1.98;1.10;;;0.50;99.90;;;;;;5054169;28;20510;-79
2022/01/25 07:25:03;;;;;;;3.53;0.90;;;0.10;99.70;;;;;;5054372;28;20021;-76
2022/01/25 07:27:28;;;;;;;3.72;1.10;;;-0.10;99.40;;;;;;5053749;28;20025;-78
2022/01/25 07:29:54;;;;;;;2.30;1.15;;;-0.30;99.50;;;;;;5054042;28;20032;-75
2022/01/25 07:32:20;;;;;;;12.88;5.55;;;-0.40;99.60;;;;;;5053924;28;20036;-74
2022/01/25 07:34:45;;;;;;;7.53;2.75;;;-0.50;99.60;;;;;;5053971;28;20027;-74
2022/01/25 07:37:11;;;;;;;44.05;17.00;;;-0.60;99.70;;;;;;5053687;28;20554;-74
2022/01/25 07:39:37;;;;;;;39.30;15.85;;;-0.60;99.40;;;;;;5054039;28;20525;-74
2022/01/25 07:42:04;;;;;;;20.42;8.02;;;-0.70;99.10;;;;;;5054062;28;20439;-73
2022/01/25 07:44:32;;;;;;;105.32;30.90;;;-0.80;99.60;;;;;;5048742;28;20383;-77
2022/01/25 07:47:00;;;;;;;38.55;11.38;;;-0.80;99.90;;;;;;5052428;28;20433;-73
2022/01/25 07:49:30;;;;;;;63.28;18.42;;;-0.90;99.80;;;;;;5052279;28;20468;-73
2022/01/25 07:51:57;;;;;;;34.35;10.65;;;-1.00;99.90;;;;;;5053400;28;20056;-73
2022/01/25 07:54:23;;;;;;;42.67;13.75;;;-1.00;99.90;;;;;;5053404;28;20025;-73
2022/01/25 07:56:49;;;;;;;29.65;10.40;;;-1.10;99.90;;;;;;5052978;28;20495;-74
2022/01/25 07:59:15;;;;;;;13.90;6.47;;;-1.10;99.90;;;;;;5052947;28;20488;-74
2022/01/25 08:01:41;;;;;;;13.25;4.80;;;-1.10;99.90;;;;;;5053223;28;20066;-80
2022/01/25 08:04:10;;;;;;;9.57;2.70;;;-1.10;99.90;;;;;;5052906;28;20078;-72
2022/01/25 08:06:38;;;;;;;3.30;2.45;;;-1.10;99.90;;;;;;5052928;28;20021;-71
2022/01/25 08:09:05;;;;;;;5.20;2.45;;;-0.30;99.90;;;;;;5053342;28;20036;-71
2022/01/25 08:11:31;;;;;;;11.20;3.70;;;0.70;99.90;;;;;;5053097;28;20135;-72
2022/01/25 08:14:11;;;;;;;3.38;1.20;;;1.30;99.90;;;;;;5052946;28;20178;-71
2022/01/25 08:16:38;;;;;;;5.25;1.90;;;1.70;99.90;;;;;;5052756;28;20111;-71
2022/01/25 08:19:04;;;;;;;4.28;1.63;;;2.10;99.90;;;;;;5053171;28;20392;-71
2022/01/25 08:21:30;;;;;;;1.10;0.88;;;2.40;99.90;;;;;;5052638;28;20021;-71
2022/01/25 08:23:55;;;;;;;2.80;1.20;;;2.70;99.90;;;;;;5052695;28;20040;-71
2022/01/25 08:26:21;;;;;;;1.98;0.90;;;2.80;99.90;;;;;;5052559;28;20032;-76
2022/01/25 08:28:47;;;;;;;4.45;1.27;;;2.90;99.90;;;;;;5052696;28;20057;-78
2022/01/25 08:31:12;;;;;;;3.65;1.10;;;2.70;97.80;;;;;;5052750;28;20071;-80
2022/01/25 08:33:39;;;;;;;4.60;1.30;;;2.00;93.70;;;;;;5052292;28;20087;-79
2022/01/25 08:36:05;;;;;;;2.17;1.02;;;1.30;93.10;;;;;;5052535;28;20052;-78
2022/01/25 08:38:32;;;;;;;2.50;1.23;;;0.70;93.40;;;;;;5051612;28;20056;-78
2022/01/25 08:40:57;;;;;;;5.15;1.00;;;0.40;94.70;;;;;;5052768;28;20629;-78
2022/01/25 08:43:24;;;;;;;4.05;1.10;;;0.20;95.50;;;;;;5052631;28;20068;-78
2022/01/25 08:45:50;;;;;;;2.05;0.80;;;0.10;96.40;;;;;;5052516;28;20029;-79
2022/01/25 08:48:16;;;;;;;2.17;0.95;;;-0.10;96.50;;;;;;5052459;28;20028;-78
2022/01/25 08:50:42;;;;;;;8.80;2.47;;;-0.20;96.80;;;;;;5052242;28;20079;-76
2022/01/25 08:53:09;;;;;;;3.75;2.08;;;-0.20;97.50;;;;;;5052009;28;20032;-78
2022/01/25 08:55:35;;;;;;;4.50;1.60;;;-0.10;99.90;;;;;;5052136;28;20059;-72
2022/01/25 08:58:01;;;;;;;27.50;16.13;;;0.10;99.90;;;;;;5052224;28;20052;-79
2022/01/25 09:00:27;;;;;;;4.30;1.85;;;0.30;99.90;;;;;;5052390;28;20094;-78
2022/01/25 09:02:53;;;;;;;4.32;1.80;;;0.80;99.90;;;;;;5052186;28;20476;-78
2022/01/25 09:05:19;;;;;;;3.25;1.20;;;0.70;99.90;;;;;;5052044;28;20025;-79
2022/01/25 09:07:45;;;;;;;6.28;1.42;;;1.50;99.90;;;;;;5052166;28;20021;-76
2022/01/25 09:10:11;;;;;;;6.88;1.23;;;1.70;99.90;;;;;;5052268;28;20036;-77
2022/01/25 09:12:36;;;;;;;4.50;1.17;;;2.10;99.90;;;;;;5051939;28;20025;-78
2022/01/25 09:15:03;;;;;;;6.82;1.25;;;1.60;95.80;;;;;;5052072;28;20025;-78
2022/01/25 09:17:29;;;;;;;4.13;1.20;;;1.10;99.90;;;;;;5051896;28;20037;-77
2022/01/25 09:19:55;;;;;;;3.88;1.45;;;1.10;99.90;;;;;;5052029;28;20487;-78
2022/01/25 09:22:21;;;;;;;5.15;1.17;;;0.70;96.80;;;;;;5051674;28;20029;-78
2022/01/25 09:24:49;;;;;;;2.63;1.10;;;1.50;99.90;;;;;;5051586;28;20179;-77
2022/01/25 09:27:15;;;;;;;1.25;0.93;;;1.70;99.90;;;;;;5051466;28;20095;-78
2022/01/25 09:29:40;;;;;;;1.88;0.98;;;1.00;95.90;;;;;;5051424;28;20432;-75
2022/01/25 09:32:07;;;;;;;7.97;1.17;;;0.50;95.90;;;;;;5051525;28;20032;-81
2022/01/25 09:34:32;;;;;;;2.22;1.05;;;0.20;96.80;;;;;;5051522;28;20096;-78
2022/01/25 09:36:58;;;;;;;2.88;1.05;;;0.00;97.00;;;;;;5051207;28;20132;-78
2022/01/25 09:39:24;;;;;;;3.65;1.33;;;-0.20;97.50;;;;;;5051577;28;20446;-77
2022/01/25 09:41:52;;;;;;;4.47;1.27;;;-0.30;98.10;;;;;;5051727;28;20116;-78
2022/01/25 09:44:18;;;;;;;3.72;1.05;;;-0.30;98.40;;;;;;5050944;28;20060;-79
2022/01/25 09:46:44;;;;;;;1.52;0.73;;;-0.30;98.50;;;;;;5051267;28;20069;-78
2022/01/25 09:49:11;;;;;;;5.70;1.08;;;-0.40;98.30;;;;;;5053355;28;20071;-79
2022/01/25 09:51:41;;;;;;;1.50;1.00;;;-0.50;98.50;;;;;;5056002;28;20056;-78
2022/01/25 09:54:07;;;;;;;2.25;1.10;;;-0.50;99.10;;;;;;5055874;28;20036;-78
2022/01/25 09:56:33;;;;;;;2.75;1.10;;;-0.60;98.50;;;;;;5055833;28;20044;-78
2022/01/25 09:59:00;;;;;;;1.40;0.90;;;-0.70;98.90;;;;;;5055815;28;20028;-79
2022/01/25 10:01:28;;;;;;;4.68;1.60;;;-0.70;98.90;;;;;;5055546;28;20029;-79
2022/01/25 10:03:54;;;;;;;2.67;1.20;;;-0.80;99.20;;;;;;5055667;28;20028;-78
2022/01/25 10:06:21;;;;;;;2.45;1.30;;;-0.80;99.30;;;;;;5055361;28;20025;-78
2022/01/25 10:08:53;;;;;;;4.63;1.42;;;-0.90;99.60;;;;;;5055333;28;20051;-78
2022/01/25 10:11:23;;;;;;;2.90;1.10;;;-0.80;99.70;;;;;;5055283;28;20044;-78
2022/01/25 10:13:52;;;;;;;2.97;1.20;;;-0.80;99.80;;;;;;5054746;28;20028;-78
2022/01/25 10:16:21;;;;;;;4.95;1.33;;;-0.90;99.80;;;;;;5055287;28;20044;-78
2022/01/25 10:18:56;;;;;;;3.83;1.17;;;-1.00;99.80;;;;;;5055450;28;20043;-78
2022/01/25 10:21:35;;;;;;;4.28;1.08;;;-0.90;99.90;;;;;;5055283;28;20040;-80
2022/01/25 10:24:07;;;;;;;6.00;1.23;;;-0.90;99.90;;;;;;5054438;28;20441;-78
2022/01/25 10:26:34;;;;;;;2.90;1.00;;;-1.00;99.90;;;;;;5055326;28;20048;-77
2022/01/25 10:29:00;;;;;;;6.15;1.23;;;-1.00;99.90;;;;;;5055402;28;20090;-78
2022/01/25 10:31:44;;;;;;;4.80;1.33;;;-0.90;99.90;;;;;;5055021;28;20021;-78
2022/01/25 10:34:12;;;;;;;3.50;1.05;;;-0.90;99.90;;;;;;5053821;28;20021;-80
2022/01/25 10:36:57;;;;;;;2.88;0.90;;;-0.90;99.90;;;;;;5054384;28;20097;-80
2022/01/25 10:39:29;;;;;;;7.10;1.45;;;-0.90;99.90;;;;;;5054587;28;20039;-79
2022/01/25 10:42:06;;;;;;;2.63;1.10;;;-0.90;99.90;;;;;;5054351;28;20166;-79
2022/01/25 10:44:46;;;;;;;4.63;1.20;;;-0.90;99.90;;;;;;5054494;28;20163;-79
2022/01/25 10:47:12;;;;;;;4.78;1.15;;;-0.90;99.90;;;;;;5053375;28;20412;-78
2022/01/25 10:49:50;;;;;;;5.68;1.20;;;-0.40;99.90;;;;;;5054496;28;20037;-77
2022/01/25 10:52:26;;;;;;;2.53;1.20;;;-0.10;99.90;;;;;;5054898;28;20045;-77
2022/01/25 10:54:53;;;;;;;1.70;0.85;;;-0.20;99.90;;;;;;5054216;28;20029;-77
2022/01/25 10:57:23;;;;;;;5.32;1.13;;;-0.20;99.90;;;;;;5054251;28;20033;-77
2022/01/25 11:00:15;;;;;;;4.30;1.15;;;-0.30;99.90;;;;;;5053838;28;20543;-77
2022/01/25 11:02:51;;;;;;;5.10;1.50;;;-0.30;99.90;;;;;;5050488;28;20047;-77
2022/01/25 11:05:18;;;;;;;2.85;1.20;;;-0.20;99.90;;;;;;5053903;28;20024;-77
2022/01/25 11:07:46;;;;;;;3.40;1.02;;;-0.30;99.90;;;;;;5054526;28;20116;-76
2022/01/25 11:10:17;;;;;;;6.47;1.63;;;-0.20;99.90;;;;;;5053513;28;20104;-75
2022/01/25 11:12:58;;;;;;;1.85;0.82;;;-0.20;99.90;;;;;;5053098;28;20029;-74
2022/01/25 11:15:25;;;;;;;1.73;0.95;;;-0.20;99.90;;;;;;5053451;28;20104;-74
2022/01/25 11:17:50;;;;;;;4.45;1.25;;;-0.20;99.70;;;;;;5053906;28;20083;-74
2022/01/25 11:20:16;;;;;;;3.72;1.00;;;-0.10;99.70;;;;;;5054531;28;20086;-74
2022/01/25 11:22:44;;;;;;;2.10;0.90;;;-0.10;99.50;;;;;;5054152;28;20485;-74
2022/01/25 11:25:11;;;;;;;1.73;1.00;;;-0.10;99.30;;;;;;5054132;28;20021;-75
2022/01/25 11:27:39;;;;;;;6.43;1.60;;;-0.10;99.20;;;;;;5054232;28;20028;-74
2022/01/25 11:30:11;;;;;;;5.03;1.13;;;-0.10;98.60;;;;;;5054366;28;20167;-76
2022/01/25 11:32:42;;;;;;;2.13;1.10;;;-0.10;98.90;;;;;;5054274;28;20048;-75
2022/01/25 11:35:11;;;;;;;5.32;1.23;;;-0.10;98.80;;;;;;5053987;28;20106;-75
2022/01/25 11:37:44;;;;;;;2.00;1.10;;;-0.10;98.60;;;;;;5053359;28;20056;-74
2022/01/25 11:40:21;;;;;;;2.53;1.08;;;-0.10;98.50;;;;;;5054032;28;20119;-76
2022/01/25 11:42:50;;;;;;;3.53;0.93;;;-0.10;98.60;;;;;;5054060;28;20067;-74
2022/01/25 11:45:23;;;;;;;1.83;0.93;;;-0.10;98.60;;;;;;5053744;28;20594;-74
2022/01/25 11:47:51;;;;;;;1.63;0.90;;;-0.10;98.60;;;;;;5053195;28;20035;-74
2022/01/25 11:50:17;;;;;;;2.63;0.90;;;-0.10;98.40;;;;;;5053226;28;20114;-74
2022/01/25 11:52:52;;;;;;;1.50;0.98;;;-0.10;98.30;;;;;;5052856;28;20025;-74
2022/01/25 11:55:30;;;;;;;2.17;1.00;;;-0.10;98.00;;;;;;5052877;28;20110;-73
2022/01/25 11:58:06;;;;;;;0.80;0.70;;;-0.10;98.00;;;;;;5052889;28;20060;-73
2022/01/25 12:00:47;;;;;;;3.88;0.98;;;-0.10;97.80;;;;;;5051335;28;20679;-73
2022/01/25 12:03:41;;;;;;;1.20;0.93;;;-0.10;98.30;;;;;;5052965;28;20028;-74
2022/01/25 12:06:30;;;;;;;3.58;1.08;;;0.00;98.30;;;;;;5049984;28;20082;-74
2022/01/25 12:11:44;;;;;;;3.30;0.95;;;0.00;97.90;;;;;;5052602;28;20025;-75
2022/01/25 12:14:31;;;;;;;2.40;1.25;;;0.00;97.60;;;;;;5052288;28;20031;-78
2022/01/25 12:16:58;;;;;;;4.00;0.90;;;0.00;97.30;;;;;;5053121;28;20021;-80
2022/01/25 12:19:40;;;;;;;3.78;1.10;;;0.00;97.60;;;;;;5052795;28;20023;-77
2022/01/25 12:25:35;;;;;;;2.30;1.15;;;0.10;98.50;;;;;;5053202;28;20034;-75
2022/01/25 12:28:20;;;;;;;3.95;1.08;;;0.00;97.00;;;;;;5050624;28;20041;-76
2022/01/25 12:30:46;;;;;;;2.40;1.17;;;-0.10;97.10;;;;;;5053041;28;20021;-76
2022/01/25 12:33:29;;;;;;;3.58;0.85;;;-0.10;97.50;;;;;;5052839;28;20032;-76
2022/01/25 12:36:03;;;;;;;2.88;0.88;;;-0.10;96.90;;;;;;5052555;28;20021;-76
2022/01/25 12:38:51;;;;;;;6.90;1.33;;;-0.20;97.00;;;;;;5052180;28;20037;-77
2022/01/25 12:41:17;;;;;;;4.03;1.10;;;-0.20;96.90;;;;;;5052395;28;20025;-77
2022/01/25 12:43:48;;;;;;;3.17;1.05;;;-0.20;97.00;;;;;;5052352;28;20052;-80
2022/01/25 12:46:16;;;;;;;1.42;1.05;;;-0.20;99.70;;;;;;5052369;28;20021;-79
2022/01/25 12:48:56;;;;;;;4.40;1.17;;;0.10;99.90;;;;;;5052403;28;20367;-78
2022/01/25 12:51:37;;;;;;;3.80;1.40;;;0.00;97.50;;;;;;5052549;28;20025;-78
2022/01/25 12:54:05;;;;;;;2.92;1.17;;;-0.10;95.70;;;;;;5052554;28;20090;-77
2022/01/25 12:56:35;;;;;;;4.22;1.23;;;-0.30;96.00;;;;;;5052101;28;20484;-78
2022/01/25 12:59:08;;;;;;;4.53;1.05;;;-0.30;98.10;;;;;;5052218;28;20503;-78
2022/01/25 13:01:39;;;;;;;3.08;0.85;;;-0.30;96.60;;;;;;5051827;28;20388;-79
2022/01/25 13:04:06;;;;;;;4.15;1.10;;;-0.40;96.20;;;;;;5051689;28;20383;-78
2022/01/25 13:06:46;;;;;;;3.03;1.20;;;-0.50;95.70;;;;;;5051988;28;20162;-76
2022/01/25 13:17:03;;;;;;;3.58;1.27;;;0.10;94.00;;;;;;5051946;28;20017;-76
2022/01/25 13:19:37;;;;;;;3.15;1.20;;;-0.10;94.60;;;;;;5051754;28;20036;-76
2022/01/25 13:22:19;;;;;;;3.20;1.08;;;-0.30;94.80;;;;;;5052331;28;20017;-76
2022/01/25 13:25:11;;;;;;;1.10;0.80;;;-0.40;95.00;;;;;;5051828;28;20035;-76
2022/01/25 13:27:50;;;;;;;3.25;1.10;;;-0.50;94.90;;;;;;5051776;28;20044;-76
2022/01/25 13:30:45;;;;;;;5.03;1.10;;;-0.70;94.90;;;;;;5052223;28;20104;-76
2022/01/25 13:33:17;;;;;;;3.70;2.10;;;-0.70;95.10;;;;;;5051868;28;20439;-76
2022/01/25 13:35:49;;;;;;;3.30;1.23;;;-0.70;95.30;;;;;;5051580;28;20032;-76
2022/01/25 13:38:25;;;;;;;3.50;1.20;;;-0.70;95.20;;;;;;5050361;28;20080;-76
2022/01/25 13:41:19;;;;;;;1.83;0.93;;;-0.70;99.90;;;;;;5052137;28;20047;-76
2022/01/25 13:46:29;;;;;;;5.90;1.50;;;-0.70;95.00;;;;;;5051672;28;20495;-75
2022/01/25 13:48:58;;;;;;;3.05;1.13;;;-0.70;95.20;;;;;;5051277;28;20107;-75
2022/01/25 13:51:26;;;;;;;4.15;1.10;;;-0.80;95.00;;;;;;5050935;28;20112;-75
2022/01/25 13:54:01;;;;;;;6.35;1.10;;;-0.80;95.20;;;;;;5051348;28;20476;-76
2022/01/25 13:56:31;;;;;;;5.80;1.10;;;-0.80;95.30;;;;;;5037514;28;20493;-76
2022/01/25 13:58:57;;;;;;;2.30;1.10;;;-0.90;95.10;;;;;;5050935;28;20507;-75
2022/01/25 14:01:27;;;;;;;4.70;1.30;;;-0.90;95.10;;;;;;5050882;28;20495;-76
2022/01/25 14:03:59;;;;;;;3.60;1.10;;;-0.90;95.10;;;;;;5047838;28;20033;-75
2022/01/25 14:06:38;;;;;;;6.35;1.30;;;-0.80;98.60;;;;;;5048634;28;20427;-75
2022/01/25 14:09:12;;;;;;;2.67;0.90;;;-0.80;96.30;;;;;;5051252;28;20039;-75
2022/01/25 14:25:31;;;;;;;1.05;0.90;;;-0.90;95.30;;;;;;5051173;28;20112;-75
2022/01/25 14:28:05;;;;;;;7.25;1.27;;;-0.90;95.00;;;;;;5051629;28;20432;-74
2022/01/25 14:30:36;;;;;;;2.72;1.25;;;-1.00;95.00;;;;;;5051017;28;20025;-75
2022/01/25 14:33:14;;;;;;;4.38;1.20;;;-1.00;95.10;;;;;;5051283;28;20047;-74
2022/01/25 14:35:51;;;;;;;5.65;1.10;;;-1.00;95.00;;;;;;5051876;28;20033;-75
2022/01/25 14:38:20;;;;;;;4.85;1.52;;;-1.00;95.20;;;;;;5054830;28;20045;-75
2022/01/25 14:41:16;;;;;;;2.67;1.38;;;-0.90;95.40;;;;;;5054076;28;20484;-75
2022/01/25 14:43:53;;;;;;;6.43;1.10;;;-0.90;95.30;;;;;;5039420;28;20420;-74
2022/01/25 14:46:27;;;;;;;4.03;1.20;;;-0.90;95.60;;;;;;5054159;28;20416;-75
2022/01/25 14:49:16;;;;;;;5.30;1.45;;;-0.90;95.60;;;;;;5053788;28;20036;-74
2022/01/25 14:52:01;;;;;;;9.57;1.33;;;-0.90;95.50;;;;;;5054615;28;20108;-74
2022/01/25 14:54:36;;;;;;;3.15;1.70;;;-0.80;95.70;;;;;;5054551;28;20472;-75
2022/01/25 14:57:09;;;;;;;3.28;1.00;;;-0.80;95.70;;;;;;5054489;28;20065;-74
2022/01/25 14:59:38;;;;;;;3.95;1.27;;;-0.90;95.50;;;;;;5054684;28;20028;-74
2022/01/25 15:02:13;;;;;;;4.32;1.00;;;-0.90;95.80;;;;;;5054176;28;20032;-75
2022/01/25 15:04:41;;;;;;;8.70;1.00;;;-0.90;96.20;;;;;;5054019;28;20028;-75
2022/01/25 15:07:10;;;;;;;4.18;1.27;;;-0.90;96.00;;;;;;5054495;28;20100;-74
2022/01/25 15:09:37;;;;;;;4.53;1.20;;;-0.90;96.30;;;;;;5054674;28;20017;-74
2022/01/25 15:12:03;;;;;;;4.43;1.25;;;-0.90;96.70;;;;;;5053821;28;20051;-75
2022/01/25 15:14:38;;;;;;;2.13;1.17;;;-1.00;96.50;;;;;;5053705;28;20067;-75
2022/01/25 15:17:04;;;;;;;11.25;1.35;;;-1.00;96.80;;;;;;5051483;28;20025;-75
2022/01/25 15:19:29;;;;;;;3.55;1.20;;;-1.00;97.10;;;;;;5054172;28;20100;-75
2022/01/25 15:21:55;;;;;;;2.83;1.00;;;-1.10;97.30;;;;;;5054408;28;20083;-76
2022/01/25 15:24:23;;;;;;;3.80;0.93;;;-1.10;97.30;;;;;;5053565;28;20090;-75
2022/01/25 15:26:53;;;;;;;5.78;1.63;;;-1.10;97.70;;;;;;5053588;28;20365;-75
2022/01/25 15:29:23;;;;;;;3.45;1.20;;;-1.10;97.80;;;;;;5051785;28;20013;-74
2022/01/25 15:31:52;;;;;;;9.13;1.25;;;-1.10;98.40;;;;;;5053576;28;20065;-78
2022/01/25 15:34:18;;;;;;;4.40;1.20;;;-1.00;99.90;;;;;;5053547;28;20040;-76
2022/01/25 15:36:44;;;;;;;4.13;1.00;;;-0.90;99.40;;;;;;5052479;28;20047;-77
2022/01/25 15:39:11;;;;;;;4.88;1.38;;;-0.90;98.70;;;;;;5053647;28;20392;-76
2022/01/25 15:41:37;;;;;;;3.67;1.40;;;-1.00;98.60;;;;;;5053948;28;20052;-76
2022/01/25 15:44:04;;;;;;;6.10;1.20;;;-1.00;98.80;;;;;;5053819;28;20041;-75
2022/01/25 15:46:33;;;;;;;6.80;1.30;;;-1.10;98.90;;;;;;5053516;28;20017;-75
2022/01/25 15:49:05;;;;;;;3.87;1.20;;;-1.10;99.10;;;;;;5053632;28;20040;-77
2022/01/25 15:51:31;;;;;;;4.30;1.00;;;-1.10;99.40;;;;;;5053260;28;20036;-76
2022/01/25 15:53:58;;;;;;;9.15;1.40;;;-1.10;99.50;;;;;;5053532;28;20184;-76
2022/01/25 15:56:25;;;;;;;4.30;1.15;;;-1.20;99.70;;;;;;5053330;28;20025;-75
2022/01/25 15:58:51;;;;;;;2.65;1.02;;;-1.20;99.90;;;;;;5053398;28;20472;-77
2022/01/25 16:01:18;;;;;;;4.00;1.00;;;-1.20;99.90;;;;;;5053495;28;20036;-76
2022/01/25 16:03:43;;;;;;;5.90;1.30;;;-1.20;99.90;;;;;;5053635;28;20087;-75
2022/01/25 16:06:10;;;;;;;4.60;1.25;;;-1.20;99.90;;;;;;5053669;28;20589;-76
2022/01/25 16:08:38;;;;;;;3.08;1.20;;;-1.20;99.90;;;;;;5053612;28;20025;-76
2022/01/25 16:11:13;;;;;;;3.95;1.08;;;-1.10;99.90;;;;;;5053287;28;20100;-75
2022/01/25 16:13:39;;;;;;;4.68;1.17;;;-1.10;99.90;;;;;;5053170;28;20033;-75
2022/01/25 16:16:05;;;;;;;6.38;1.65;;;-1.10;99.90;;;;;;5053148;28;20473;-74
2022/01/25 16:18:30;;;;;;;7.15;1.50;;;-1.00;99.90;;;;;;5053578;28;20119;-75